Terminal Aerodrome Forecast
Issued by NWS Bismarck, ND

Home | Current Version | Previous Version | Graphics & Text | Print | Product List | Glossary On
Versions: 1 2 3 4 5 6 7 8 9 10 11 12 13 14 15 16 17
000
FTUS43 KBIS 221100
TAFBIS
TAF
KBIS 221137Z 2212/2312 16006KT P6SM SCT150
     FM221500 17011KT P6SM BKN080 BKN150
     FM230000 20012KT P6SM VCSH SCT050 BKN080 OVC150
     FM230900 25014KT P6SM SCT035 BKN050=

USA.gov is the U.S. government's official web portal to all federal, state and local government web resources and services.